createdAt,value
2022-09-24T00:00:54.183Z,3.10
2022-09-24T00:03:45.788Z,3.05
2022-09-24T00:06:38.388Z,3.13
2022-09-24T00:09:27.238Z,3.13
2022-09-24T00:12:16.054Z,3.15
2022-09-24T00:15:05.139Z,3.22
2022-09-24T00:17:55.766Z,3.38
2022-09-24T00:20:45.227Z,3.10
2022-09-24T00:23:34.286Z,3.20
2022-09-24T00:26:41.384Z,2.85
2022-09-24T00:29:34.513Z,3.08
2022-09-24T00:32:24.339Z,3.00
2022-09-24T00:35:15.310Z,2.92
2022-09-24T00:38:04.903Z,2.30
2022-09-24T00:40:54.198Z,2.40
2022-09-24T00:43:44.018Z,2.90
2022-09-24T00:46:37.304Z,2.90
2022-09-24T00:49:26.790Z,2.85
2022-09-24T00:52:19.287Z,2.50
2022-09-24T00:55:10.011Z,3.10
2022-09-24T00:58:01.664Z,2.83
2022-09-24T01:00:52.803Z,2.90
2022-09-24T01:03:43.682Z,2.25
2022-09-24T01:06:32.633Z,2.50
2022-09-24T01:09:25.525Z,2.45
2022-09-24T01:12:23.280Z,2.55
2022-09-24T01:15:19.895Z,2.42
2022-09-24T01:18:13.065Z,2.00
2022-09-24T01:21:16.661Z,2.20
2022-09-24T01:24:26.116Z,2.08
2022-09-24T01:27:21.695Z,2.50
2022-09-24T01:30:14.415Z,2.10
2022-09-24T01:33:05.897Z,2.20
2022-09-24T01:35:59.167Z,1.95
2022-09-24T01:38:51.399Z,1.75
2022-09-24T01:41:43.196Z,1.90
2022-09-24T01:44:32.440Z,1.60
2022-09-24T01:47:34.333Z,1.42
2022-09-24T01:50:26.496Z,2.00
2022-09-24T01:53:21.005Z,2.00
2022-09-24T01:56:16.657Z,1.60
2022-09-24T01:59:12.071Z,1.40
2022-09-24T02:02:06.821Z,1.60
2022-09-24T02:05:03.855Z,1.60
2022-09-24T02:07:59.104Z,1.40
2022-09-24T02:10:53.205Z,2.10
2022-09-24T02:13:51.313Z,1.83
2022-09-24T02:16:46.401Z,1.70
2022-09-24T02:19:38.305Z,1.90
2022-09-24T02:22:30.452Z,1.23
2022-09-24T02:25:24.054Z,1.50
2022-09-24T02:28:13.808Z,1.60
2022-09-24T02:31:08.287Z,1.30
2022-09-24T02:34:16.021Z,1.45
2022-09-24T02:37:07.833Z,1.40
2022-09-24T02:39:58.433Z,1.35
2022-09-24T02:42:48.168Z,0.95
2022-09-24T02:45:37.397Z,1.38
2022-09-24T02:48:26.533Z,1.27
2022-09-24T02:51:15.596Z,1.13
2022-09-24T02:54:04.546Z,1.58
2022-09-24T02:56:55.462Z,1.55
2022-09-24T02:59:44.574Z,1.50
2022-09-24T03:02:33.644Z,1.30
2022-09-24T03:05:23.375Z,1.55
2022-09-24T03:08:12.484Z,1.88
2022-09-24T03:11:01.631Z,1.90
2022-09-24T03:13:53.030Z,1.50
2022-09-24T03:16:42.474Z,1.75
2022-09-24T03:19:31.884Z,1.60
2022-09-24T03:22:21.281Z,1.38
2022-09-24T03:25:11.762Z,1.80
2022-09-24T03:28:00.954Z,2.10
2022-09-24T03:31:03.901Z,2.00
2022-09-24T03:33:53.296Z,2.40
2022-09-24T03:36:42.159Z,2.35
2022-09-24T03:39:31.681Z,2.28
2022-09-24T03:42:20.287Z,2.50
2022-09-24T03:45:10.760Z,2.30
2022-09-24T03:48:01.562Z,2.50
2022-09-24T03:50:51.150Z,2.88
2022-09-24T03:53:41.051Z,2.42
2022-09-24T03:56:30.278Z,2.20
2022-09-24T03:59:18.900Z,2.03
2022-09-24T04:02:08.175Z,1.85
2022-09-24T04:04:58.474Z,2.33
2022-09-24T04:07:47.731Z,2.10
2022-09-24T04:10:37.055Z,2.03
2022-09-24T04:13:26.148Z,2.28
2022-09-24T04:16:14.816Z,2.20
2022-09-24T04:19:03.715Z,2.28
2022-09-24T04:21:53.933Z,2.45
2022-09-24T04:24:42.827Z,3.10
2022-09-24T04:27:31.979Z,2.67
2022-09-24T04:30:21.326Z,2.58
2022-09-24T04:33:11.137Z,2.28
2022-09-24T04:36:00.184Z,2.25
2022-09-24T04:38:51.322Z,2.25
2022-09-24T04:41:42.097Z,2.80
2022-09-24T04:44:31.076Z,2.70
2022-09-24T04:47:20.935Z,2.78
2022-09-24T04:50:11.829Z,2.25
2022-09-24T04:53:01.621Z,2.15
2022-09-24T04:55:51.938Z,2.50
2022-09-24T04:58:41.462Z,2.88
2022-09-24T05:01:30.997Z,2.20
2022-09-24T05:04:20.538Z,3.03
2022-09-24T05:07:09.740Z,2.83
2022-09-24T05:09:58.462Z,2.42
2022-09-24T05:12:49.034Z,2.50
2022-09-24T05:15:42.366Z,3.25
2022-09-24T05:18:32.503Z,3.10
2022-09-24T05:21:22.513Z,3.42
2022-09-24T05:24:11.747Z,3.13
2022-09-24T05:27:13.421Z,2.83
2022-09-24T05:30:04.087Z,3.10
2022-09-24T05:32:53.556Z,3.38
2022-09-24T05:35:42.383Z,3.80
2022-09-24T05:38:33.476Z,3.15
2022-09-24T05:41:23.018Z,2.92
2022-09-24T05:44:12.675Z,3.85
2022-09-24T05:47:03.153Z,3.95
2022-09-24T05:49:51.829Z,4.35
2022-09-24T05:52:40.992Z,4.47
2022-09-24T05:55:32.373Z,4.32
2022-09-24T05:58:22.202Z,4.45
2022-09-24T06:01:11.303Z,4.90
2022-09-24T06:04:04.813Z,5.00
2022-09-24T06:06:57.543Z,4.35
2022-09-24T06:09:48.166Z,5.30
2022-09-24T06:12:37.482Z,4.60
2022-09-24T06:15:27.494Z,5.07
2022-09-24T06:18:16.584Z,4.97
2022-09-24T06:21:09.362Z,6.22
2022-09-24T06:23:58.162Z,5.30
2022-09-24T06:26:47.452Z,5.13
2022-09-24T06:29:36.102Z,5.78
2022-09-24T06:32:25.495Z,6.18
2022-09-24T06:35:14.894Z,6.40
2022-09-24T06:38:05.340Z,5.93
2022-09-24T06:40:54.060Z,6.25
2022-09-24T06:43:42.868Z,6.05
2022-09-24T06:46:32.013Z,6.80
2022-09-24T06:49:20.794Z,6.13
2022-09-24T06:52:09.745Z,6.28
2022-09-24T06:55:00.297Z,6.85
2022-09-24T06:57:49.346Z,6.32
2022-09-24T07:00:39.797Z,7.50
2022-09-24T07:03:29.866Z,7.63
2022-09-24T07:06:18.627Z,9.13
2022-09-24T07:09:07.765Z,7.50
2022-09-24T07:12:01.785Z,7.75
2022-09-24T07:14:50.243Z,7.70
2022-09-24T07:17:39.410Z,8.90
2022-09-24T07:20:30.048Z,9.45
2022-09-24T07:23:19.579Z,8.30
2022-09-24T07:26:08.574Z,8.73
2022-09-24T07:28:59.285Z,10.90
2022-09-24T07:31:48.353Z,7.97
2022-09-24T07:34:37.291Z,9.98
2022-09-24T07:37:26.955Z,9.65
2022-09-24T07:40:16.439Z,9.90
2022-09-24T07:43:11.842Z,8.48
2022-09-24T07:46:02.268Z,8.38
2022-09-24T07:48:54.587Z,6.80
2022-09-24T07:51:43.685Z,7.20
2022-09-24T07:54:32.859Z,7.38
2022-09-24T07:57:21.826Z,6.90
2022-09-24T08:00:13.020Z,6.32
2022-09-24T08:03:05.294Z,6.50
2022-09-24T08:05:57.477Z,6.57
2022-09-24T08:08:46.563Z,6.32
2022-09-24T08:11:35.995Z,6.72
2022-09-24T08:14:25.681Z,6.80
2022-09-24T08:17:15.185Z,6.40
2022-09-24T08:20:06.360Z,6.78
2022-09-24T08:22:55.332Z,6.75
2022-09-24T08:25:44.412Z,6.63
2022-09-24T08:28:34.194Z,6.00
2022-09-24T08:31:24.098Z,5.65
2022-09-24T08:34:13.026Z,5.78
2022-09-24T08:37:04.300Z,5.93
2022-09-24T08:39:53.112Z,6.03
2022-09-24T08:42:50.745Z,6.70
2022-09-24T08:46:03.038Z,5.90
2022-09-24T08:52:33.176Z,6.75
2022-09-24T08:55:26.395Z,6.25
2022-09-24T08:58:33.218Z,6.32
2022-09-24T09:01:33.324Z,7.20
2022-09-24T09:04:28.523Z,7.60
2022-09-24T09:07:23.085Z,6.80
2022-09-24T09:10:18.870Z,6.43
2022-09-24T09:13:15.468Z,6.43
2022-09-24T09:16:16.632Z,5.68
2022-09-24T09:19:07.994Z,6.18
2022-09-24T09:22:01.907Z,6.80
2022-09-24T09:24:52.821Z,6.57
2022-09-24T09:27:43.012Z,6.43
2022-09-24T09:30:43.872Z,7.07
2022-09-24T09:33:48.541Z,6.03
2022-09-24T09:36:47.116Z,6.07
2022-09-24T09:39:45.510Z,6.00
2022-09-24T09:42:36.611Z,5.63
2022-09-24T09:45:34.028Z,6.57
2022-09-24T09:48:26.250Z,6.25
2022-09-24T09:51:23.586Z,5.72
2022-09-24T09:54:13.128Z,6.28
2022-09-24T09:57:05.326Z,5.90
2022-09-24T09:59:56.331Z,5.90
2022-09-24T10:02:53.995Z,6.53
2022-09-24T10:05:43.727Z,6.38
2022-09-24T10:08:33.540Z,5.97
2022-09-24T10:11:24.540Z,6.57
2022-09-24T10:14:15.005Z,7.43
2022-09-24T10:17:06.779Z,6.45
2022-09-24T10:19:57.478Z,7.32
2022-09-24T10:22:51.277Z,7.10
2022-09-24T10:25:40.531Z,7.38
2022-09-24T10:28:47.465Z,6.97
2022-09-24T10:31:39.178Z,7.57
2022-09-24T10:34:30.087Z,6.65
2022-09-24T10:37:20.710Z,7.43
2022-09-24T10:40:16.011Z,7.75
2022-09-24T10:43:06.473Z,8.05
2022-09-24T10:46:21.988Z,7.30
2022-09-24T10:49:20.137Z,7.60
2022-09-24T10:52:23.855Z,7.50
2022-09-24T10:55:26.971Z,7.90
2022-09-24T10:58:29.632Z,7.90
2022-09-24T11:01:22.582Z,7.35
2022-09-24T11:04:27.143Z,7.10
2022-09-24T11:07:46.395Z,8.07
2022-09-24T11:10:57.413Z,7.80
2022-09-24T11:13:57.097Z,10.45
2022-09-24T11:17:06.913Z,8.27
2022-09-24T11:20:11.211Z,7.75
2022-09-24T11:23:13.762Z,9.32
2022-09-24T11:26:15.957Z,7.22
2022-09-24T11:29:31.134Z,7.53
2022-09-24T11:32:31.650Z,7.70
2022-09-24T11:35:31.702Z,8.30
2022-09-24T11:38:30.264Z,8.52
2022-09-24T11:41:32.704Z,7.82
2022-09-24T11:44:56.875Z,7.70
2022-09-24T11:48:12.596Z,9.43
2022-09-24T11:51:11.997Z,8.95
2022-09-24T11:54:07.404Z,8.45
2022-09-24T11:57:04.627Z,8.40
2022-09-24T11:59:59.883Z,8.10
2022-09-24T12:02:53.546Z,7.97
2022-09-24T12:05:46.633Z,8.50
2022-09-24T12:08:40.717Z,7.88
2022-09-24T12:11:35.428Z,8.55
2022-09-24T12:14:30.332Z,8.27
2022-09-24T12:17:22.942Z,7.97
2022-09-24T12:20:20.660Z,7.93
2022-09-24T12:23:14.772Z,7.78
2022-09-24T12:26:06.571Z,8.13
2022-09-24T12:29:18.125Z,8.02
2022-09-24T12:32:36.952Z,7.47
2022-09-24T12:35:47.410Z,7.80
2022-09-24T12:38:40.810Z,8.70
2022-09-24T12:41:32.885Z,7.82
2022-09-24T12:44:29.814Z,8.02
2022-09-24T12:47:24.383Z,8.05
2022-09-24T12:50:23.832Z,8.73
2022-09-24T12:53:25.724Z,8.02
2022-09-24T12:56:25.168Z,8.35
2022-09-24T12:59:26.984Z,9.23
2022-09-24T13:02:18.160Z,8.52
2022-09-24T13:05:19.754Z,8.65
2022-09-24T13:08:28.122Z,8.35
2022-09-24T13:11:32.789Z,8.55
2022-09-24T13:14:23.807Z,9.00
2022-09-24T13:17:17.384Z,8.40
2022-09-24T13:20:08.730Z,9.00
2022-09-24T13:23:00.360Z,8.85
2022-09-24T13:25:57.823Z,8.00
2022-09-24T13:28:55.775Z,9.38
2022-09-24T13:31:49.669Z,8.43
2022-09-24T13:34:38.905Z,8.82
2022-09-24T13:37:35.921Z,8.60
2022-09-24T13:40:30.421Z,8.80
2022-09-24T13:43:37.649Z,9.65
2022-09-24T13:46:29.699Z,9.60
2022-09-24T13:49:22.918Z,8.98
2022-09-24T13:52:18.420Z,9.48
2022-09-24T13:55:17.100Z,10.15
2022-09-24T13:58:08.070Z,9.75
2022-09-24T14:00:58.657Z,9.75
2022-09-24T14:03:55.345Z,10.32
2022-09-24T14:06:47.214Z,9.45
2022-09-24T14:09:37.683Z,10.50
2022-09-24T14:12:26.714Z,11.05
2022-09-24T14:15:19.201Z,10.13
2022-09-24T14:18:12.687Z,11.35
2022-09-24T14:21:06.547Z,10.05
2022-09-24T14:23:58.191Z,10.45
2022-09-24T14:26:52.088Z,12.70
2022-09-24T14:29:48.494Z,9.73
2022-09-24T14:32:42.730Z,12.18
2022-09-24T14:35:33.731Z,12.57
2022-09-24T14:38:26.147Z,13.32
2022-09-24T14:41:20.478Z,11.75
2022-09-24T14:44:16.407Z,12.00
2022-09-24T14:47:05.792Z,11.07
2022-09-24T14:49:56.877Z,12.57
2022-09-24T14:52:56.989Z,13.60
2022-09-24T14:55:46.561Z,12.63
2022-09-24T14:58:40.434Z,13.13
2022-09-24T15:01:33.536Z,13.35
2022-09-24T15:04:31.376Z,11.38
2022-09-24T15:07:25.482Z,11.43
2022-09-24T15:10:22.177Z,11.05
2022-09-24T15:13:16.128Z,10.15
2022-09-24T15:16:07.848Z,11.95
2022-09-24T15:19:02.922Z,11.40
2022-09-24T15:21:54.201Z,11.70
2022-09-24T15:24:44.581Z,12.43
2022-09-24T15:27:35.128Z,12.40
2022-09-24T15:30:24.427Z,11.88
2022-09-24T15:33:14.232Z,12.25
2022-09-24T15:36:03.580Z,11.63
2022-09-24T15:38:53.851Z,11.57
2022-09-24T15:41:44.619Z,10.93
2022-09-24T15:44:34.422Z,11.75
2022-09-24T15:47:23.342Z,10.95
2022-09-24T15:50:13.170Z,11.23
2022-09-24T15:53:03.561Z,10.23
2022-09-24T15:55:55.499Z,11.10
2022-09-24T15:58:47.169Z,11.20
2022-09-24T16:01:36.552Z,11.65
2022-09-24T16:04:25.988Z,10.98
2022-09-24T16:07:15.296Z,12.15
2022-09-24T16:10:04.836Z,10.60
2022-09-24T16:12:53.954Z,10.80
2022-09-24T16:15:45.102Z,12.43
2022-09-24T16:18:33.941Z,12.32
2022-09-24T16:21:23.308Z,11.40
2022-09-24T16:24:12.862Z,11.15
2022-09-24T16:27:01.845Z,10.95
2022-09-24T16:29:51.260Z,12.50
2022-09-24T16:32:41.776Z,11.77
2022-09-24T16:35:30.894Z,11.55
2022-09-24T16:38:22.813Z,11.43
2022-09-24T16:41:12.238Z,12.48
2022-09-24T16:44:01.742Z,12.27
2022-09-24T16:46:51.333Z,10.95
2022-09-24T16:49:42.217Z,11.32
2022-09-24T16:52:32.029Z,10.88
2022-09-24T16:55:20.993Z,11.55
2022-09-24T16:58:10.131Z,11.38
2022-09-24T17:00:59.430Z,10.45
2022-09-24T17:03:52.684Z,10.63
2022-09-24T17:06:44.997Z,9.38
2022-09-24T17:09:51.508Z,10.85
2022-09-24T17:12:41.168Z,12.13
2022-09-24T17:15:30.391Z,11.45
2022-09-24T17:18:19.928Z,12.65
2022-09-24T17:21:12.626Z,11.50
2022-09-24T17:24:03.228Z,10.80
2022-09-24T17:26:54.370Z,11.18
2022-09-24T17:29:44.600Z,12.43
2022-09-24T17:32:33.639Z,13.32
2022-09-24T17:35:22.950Z,13.88
2022-09-24T17:38:12.603Z,13.40
2022-09-24T17:41:05.954Z,13.85
2022-09-24T17:43:57.993Z,13.27
2022-09-24T17:46:49.759Z,13.52
2022-09-24T17:49:39.888Z,14.38
2022-09-24T17:52:28.991Z,14.35
2022-09-24T17:55:18.521Z,13.10
2022-09-24T17:58:09.899Z,14.35
2022-09-24T18:01:05.965Z,14.60
2022-09-24T18:03:57.227Z,14.85
2022-09-24T18:06:50.461Z,14.52
2022-09-24T18:09:41.530Z,13.65
2022-09-24T18:12:31.330Z,14.38
2022-09-24T18:15:27.533Z,13.70
2022-09-24T18:18:21.983Z,13.65
2022-09-24T18:21:14.081Z,14.75
2022-09-24T18:24:08.002Z,15.90
2022-09-24T18:27:01.668Z,15.02
2022-09-24T18:29:51.878Z,15.27
2022-09-24T18:32:51.555Z,14.55
2022-09-24T18:35:46.208Z,15.25
2022-09-24T18:38:39.242Z,16.02
2022-09-24T18:41:31.244Z,14.75
2022-09-24T18:44:22.349Z,14.93
2022-09-24T18:47:14.908Z,15.93
2022-09-24T18:50:08.038Z,15.98
2022-09-24T18:52:57.210Z,15.60
2022-09-24T18:55:47.328Z,16.17
2022-09-24T18:58:39.602Z,15.70
2022-09-24T19:01:35.925Z,15.63
2022-09-24T19:04:32.535Z,16.15
2022-09-24T19:07:26.013Z,15.52
2022-09-24T19:10:17.645Z,15.90
2022-09-24T19:13:09.153Z,17.15
2022-09-24T19:16:04.268Z,16.63
2022-09-24T19:18:55.538Z,14.57
2022-09-24T19:21:47.611Z,16.27
2022-09-24T19:24:39.151Z,13.63
2022-09-24T19:27:29.677Z,16.35
2022-09-24T19:30:21.106Z,15.60
2022-09-24T19:33:12.496Z,15.30
2022-09-24T19:36:04.860Z,14.75
2022-09-24T19:38:58.448Z,14.85
2022-09-24T19:41:56.358Z,14.55
2022-09-24T19:44:48.920Z,14.48
2022-09-24T19:47:40.868Z,15.15
2022-09-24T19:50:34.482Z,15.30
2022-09-24T19:53:27.371Z,15.00
2022-09-24T19:56:19.361Z,15.60
2022-09-24T19:59:15.594Z,14.45
2022-09-24T20:02:07.141Z,14.48
2022-09-24T20:04:59.241Z,15.85
2022-09-24T20:07:52.106Z,14.60
2022-09-24T20:10:46.153Z,15.07
2022-09-24T20:13:40.703Z,13.75
2022-09-24T20:16:33.936Z,13.00
2022-09-24T20:19:25.049Z,13.50
2022-09-24T20:22:17.473Z,14.90
2022-09-24T20:25:08.511Z,13.43
2022-09-24T20:27:57.853Z,14.77
2022-09-24T20:30:49.961Z,13.65
2022-09-24T20:33:43.595Z,14.15
2022-09-24T20:36:35.553Z,14.07
2022-09-24T20:39:28.821Z,14.00
2022-09-24T20:42:19.902Z,13.18
2022-09-24T20:45:13.057Z,12.18
2022-09-24T20:48:05.714Z,11.95
2022-09-24T20:50:57.731Z,13.02
2022-09-24T20:53:48.872Z,11.85
2022-09-24T20:56:40.079Z,12.50
2022-09-24T20:59:32.345Z,12.00
2022-09-24T21:02:22.931Z,12.50
2022-09-24T21:05:16.366Z,11.85
2022-09-24T21:08:13.747Z,12.50
2022-09-24T21:11:08.018Z,11.70
2022-09-24T21:14:03.792Z,10.88
2022-09-24T21:16:55.375Z,9.88
2022-09-24T21:19:52.360Z,10.60
2022-09-24T21:22:41.778Z,9.20
2022-09-24T21:25:53.262Z,9.07
2022-09-24T21:28:44.235Z,9.27
2022-09-24T21:31:35.958Z,8.68
2022-09-24T21:34:28.288Z,9.32
2022-09-24T21:37:28.026Z,8.05
2022-09-24T21:40:19.395Z,8.80
2022-09-24T21:43:13.968Z,8.98
2022-09-24T21:46:07.302Z,8.00
2022-09-24T21:48:59.795Z,8.95
2022-09-24T21:51:59.486Z,9.20
2022-09-24T21:54:48.970Z,8.63
2022-09-24T21:57:40.626Z,8.25
2022-09-24T22:00:30.988Z,7.90
2022-09-24T22:03:25.896Z,8.80
2022-09-24T22:06:17.490Z,7.85
2022-09-24T22:09:10.299Z,8.70
2022-09-24T22:12:01.527Z,8.77
2022-09-24T22:14:53.158Z,7.97
2022-09-24T22:17:48.004Z,9.18
2022-09-24T22:20:43.118Z,8.90
2022-09-24T22:23:32.580Z,8.73
2022-09-24T22:26:25.390Z,8.23
2022-09-24T22:29:19.801Z,8.70
2022-09-24T22:32:08.995Z,8.40
2022-09-24T22:35:17.516Z,8.63
2022-09-24T22:38:10.338Z,8.52
2022-09-24T22:41:05.223Z,10.23
2022-09-24T22:43:56.193Z,9.45
2022-09-24T22:46:48.077Z,9.65
2022-09-24T22:49:38.798Z,9.65
2022-09-24T22:52:30.009Z,10.50
2022-09-24T22:55:19.214Z,8.95
2022-09-24T22:58:09.312Z,10.50
2022-09-24T23:00:59.382Z,9.65
2022-09-24T23:03:49.308Z,9.82
2022-09-24T23:06:38.623Z,10.23
2022-09-24T23:09:30.725Z,10.18
2022-09-24T23:12:19.812Z,10.30
2022-09-24T23:15:10.363Z,10.52
2022-09-24T23:17:59.314Z,10.60
2022-09-24T23:20:48.633Z,11.30
2022-09-24T23:23:38.169Z,11.27
2022-09-24T23:26:29.333Z,10.82
2022-09-24T23:29:18.317Z,9.73
2022-09-24T23:32:08.125Z,10.20
2022-09-24T23:34:57.970Z,10.10
2022-09-24T23:37:47.302Z,10.57
2022-09-24T23:40:36.386Z,10.50
2022-09-24T23:43:27.947Z,11.57
2022-09-24T23:46:17.392Z,10.80
2022-09-24T23:49:06.572Z,11.25
2022-09-24T23:51:55.407Z,11.45
2022-09-24T23:54:44.592Z,11.70
2022-09-24T23:57:33.524Z,13.55
